Terminal Aerodrome Forecast
Issued by NWS

Home | Current Version | Previous Version | Graphics & Text | Print | Product List | Glossary On
Versions: 1 2 3 4 5 6 7 8 9 10 11 12 13 14 15 16 17 18 19 20 21
000
FTUS43 KMPX 302300
TAFRNH
TAF
KRNH 302339Z 0100/0124 12009KT P6SM SCT070 BKN250
     FM010400 12008KT P6SM VCSH SCT020 OVC035
     FM010800 13010KT 5SM -SHRA BR BKN007 OVC012
     FM011400 14010KT 3SM -RA BR SCT007 OVC015
     FM012000 15008KT 6SM BR OVC020=

USA.gov is the U.S. government's official web portal to all federal, state and local government web resources and services.